sensor_id;sensor_type;location;lat;lon;timestamp;P1;durP1;ratioP1;P2;durP2;ratioP2
8297;SDS011;4187;42.778;23.242;2024-02-14T00:00:05;8.57;;;7.30;;
8297;SDS011;4187;42.778;23.242;2024-02-14T00:02:35;8.50;;;6.77;;
8297;SDS011;4187;42.778;23.242;2024-02-14T00:05:02;7.80;;;6.97;;
8297;SDS011;4187;42.778;23.242;2024-02-14T00:07:29;8.80;;;7.30;;
8297;SDS011;4187;42.778;23.242;2024-02-14T00:09:56;7.33;;;6.60;;
8297;SDS011;4187;42.778;23.242;2024-02-14T00:12:24;8.03;;;7.03;;
8297;SDS011;4187;42.778;23.242;2024-02-14T00:14:51;7.57;;;6.47;;
8297;SDS011;4187;42.778;23.242;2024-02-14T00:17:18;8.53;;;6.80;;
8297;SDS011;4187;42.778;23.242;2024-02-14T00:19:45;7.57;;;6.80;;
8297;SDS011;4187;42.778;23.242;2024-02-14T00:22:11;7.67;;;6.50;;
8297;SDS011;4187;42.778;23.242;2024-02-14T00:24:38;8.40;;;7.43;;
8297;SDS011;4187;42.778;23.242;2024-02-14T00:27:05;8.50;;;7.23;;
8297;SDS011;4187;42.778;23.242;2024-02-14T00:29:33;7.83;;;7.03;;
8297;SDS011;4187;42.778;23.242;2024-02-14T00:32:00;7.50;;;6.80;;
8297;SDS011;4187;42.778;23.242;2024-02-14T00:34:27;7.07;;;6.37;;
8297;SDS011;4187;42.778;23.242;2024-02-14T00:36:54;8.23;;;7.33;;
8297;SDS011;4187;42.778;23.242;2024-02-14T00:39:21;7.77;;;6.70;;
8297;SDS011;4187;42.778;23.242;2024-02-14T00:41:47;7.73;;;7.03;;
8297;SDS011;4187;42.778;23.242;2024-02-14T00:44:15;7.87;;;7.07;;
8297;SDS011;4187;42.778;23.242;2024-02-14T00:46:45;8.43;;;6.87;;
8297;SDS011;4187;42.778;23.242;2024-02-14T00:49:13;7.73;;;6.93;;
8297;SDS011;4187;42.778;23.242;2024-02-14T00:51:40;7.63;;;6.93;;
8297;SDS011;4187;42.778;23.242;2024-02-14T00:54:07;7.87;;;7.10;;
8297;SDS011;4187;42.778;23.242;2024-02-14T00:56:33;7.93;;;7.13;;
8297;SDS011;4187;42.778;23.242;2024-02-14T00:59:01;9.43;;;7.70;;
8297;SDS011;4187;42.778;23.242;2024-02-14T01:01:28;9.00;;;7.07;;
8297;SDS011;4187;42.778;23.242;2024-02-14T01:03:56;8.53;;;7.30;;
8297;SDS011;4187;42.778;23.242;2024-02-14T01:06:26;7.90;;;7.10;;
8297;SDS011;4187;42.778;23.242;2024-02-14T01:08:52;8.23;;;7.40;;
8297;SDS011;4187;42.778;23.242;2024-02-14T01:11:19;7.17;;;6.47;;
8297;SDS011;4187;42.778;23.242;2024-02-14T01:13:46;7.43;;;6.73;;
8297;SDS011;4187;42.778;23.242;2024-02-14T01:16:13;8.10;;;7.27;;
8297;SDS011;4187;42.778;23.242;2024-02-14T01:18:39;8.80;;;7.90;;
8297;SDS011;4187;42.778;23.242;2024-02-14T01:21:08;8.77;;;7.60;;
8297;SDS011;4187;42.778;23.242;2024-02-14T01:23:34;8.23;;;7.43;;
8297;SDS011;4187;42.778;23.242;2024-02-14T01:26:01;10.57;;;7.57;;
8297;SDS011;4187;42.778;23.242;2024-02-14T01:28:28;9.17;;;8.17;;
8297;SDS011;4187;42.778;23.242;2024-02-14T01:30:55;9.10;;;8.07;;
8297;SDS011;4187;42.778;23.242;2024-02-14T01:33:22;8.10;;;7.30;;
8297;SDS011;4187;42.778;23.242;2024-02-14T01:35:49;8.67;;;7.73;;
8297;SDS011;4187;42.778;23.242;2024-02-14T01:38:17;9.97;;;8.57;;
8297;SDS011;4187;42.778;23.242;2024-02-14T01:40:44;9.20;;;8.10;;
8297;SDS011;4187;42.778;23.242;2024-02-14T01:43:11;8.77;;;7.97;;
8297;SDS011;4187;42.778;23.242;2024-02-14T01:45:39;10.43;;;8.40;;
8297;SDS011;4187;42.778;23.242;2024-02-14T01:48:06;8.77;;;7.87;;
8297;SDS011;4187;42.778;23.242;2024-02-14T01:50:34;9.07;;;7.87;;
8297;SDS011;4187;42.778;23.242;2024-02-14T01:53:01;8.77;;;7.67;;
8297;SDS011;4187;42.778;23.242;2024-02-14T01:55:31;9.50;;;8.50;;
8297;SDS011;4187;42.778;23.242;2024-02-14T01:57:59;10.50;;;9.40;;
8297;SDS011;4187;42.778;23.242;2024-02-14T02:00:28;11.27;;;10.10;;
8297;SDS011;4187;42.778;23.242;2024-02-14T02:02:56;9.87;;;8.97;;
8297;SDS011;4187;42.778;23.242;2024-02-14T02:05:24;9.30;;;8.40;;
8297;SDS011;4187;42.778;23.242;2024-02-14T02:07:51;10.20;;;8.43;;
8297;SDS011;4187;42.778;23.242;2024-02-14T02:10:19;10.13;;;7.73;;
8297;SDS011;4187;42.778;23.242;2024-02-14T02:12:48;8.87;;;7.97;;
8297;SDS011;4187;42.778;23.242;2024-02-14T02:15:16;9.90;;;8.90;;
8297;SDS011;4187;42.778;23.242;2024-02-14T02:17:43;9.07;;;8.27;;
8297;SDS011;4187;42.778;23.242;2024-02-14T02:20:11;8.37;;;7.50;;
8297;SDS011;4187;42.778;23.242;2024-02-14T02:22:42;12.30;;;7.90;;
8297;SDS011;4187;42.778;23.242;2024-02-14T02:25:10;8.20;;;7.40;;
8297;SDS011;4187;42.778;23.242;2024-02-14T02:27:37;9.43;;;7.93;;
8297;SDS011;4187;42.778;23.242;2024-02-14T02:30:04;8.97;;;7.97;;
8297;SDS011;4187;42.778;23.242;2024-02-14T02:32:33;9.20;;;8.20;;
8297;SDS011;4187;42.778;23.242;2024-02-14T02:35:00;10.30;;;9.30;;
8297;SDS011;4187;42.778;23.242;2024-02-14T02:37:26;10.80;;;9.70;;
8297;SDS011;4187;42.778;23.242;2024-02-14T02:39:56;11.70;;;8.00;;
8297;SDS011;4187;42.778;23.242;2024-02-14T02:42:23;9.73;;;8.27;;
8297;SDS011;4187;42.778;23.242;2024-02-14T02:44:50;9.07;;;7.90;;
8297;SDS011;4187;42.778;23.242;2024-02-14T02:47:17;9.67;;;8.40;;
8297;SDS011;4187;42.778;23.242;2024-02-14T02:49:44;9.63;;;8.63;;
8297;SDS011;4187;42.778;23.242;2024-02-14T02:52:11;9.50;;;8.50;;
8297;SDS011;4187;42.778;23.242;2024-02-14T02:54:38;9.90;;;8.63;;
8297;SDS011;4187;42.778;23.242;2024-02-14T02:57:07;9.03;;;8.13;;
8297;SDS011;4187;42.778;23.242;2024-02-14T02:59:35;10.87;;;9.70;;
8297;SDS011;4187;42.778;23.242;2024-02-14T03:02:02;10.20;;;8.90;;
8297;SDS011;4187;42.778;23.242;2024-02-14T03:04:33;10.77;;;9.30;;
8297;SDS011;4187;42.778;23.242;2024-02-14T03:07:00;9.70;;;8.77;;
8297;SDS011;4187;42.778;23.242;2024-02-14T03:09:29;10.73;;;9.63;;
8297;SDS011;4187;42.778;23.242;2024-02-14T03:11:56;10.47;;;9.07;;
8297;SDS011;4187;42.778;23.242;2024-02-14T03:14:24;10.43;;;9.30;;
8297;SDS011;4187;42.778;23.242;2024-02-14T03:16:51;10.00;;;9.00;;
8297;SDS011;4187;42.778;23.242;2024-02-14T03:19:18;9.97;;;8.97;;
8297;SDS011;4187;42.778;23.242;2024-02-14T03:21:44;10.90;;;9.63;;
8297;SDS011;4187;42.778;23.242;2024-02-14T03:24:11;10.57;;;9.47;;
8297;SDS011;4187;42.778;23.242;2024-02-14T03:26:39;9.77;;;8.77;;
8297;SDS011;4187;42.778;23.242;2024-02-14T03:29:07;10.80;;;9.23;;
8297;SDS011;4187;42.778;23.242;2024-02-14T03:31:35;11.83;;;10.60;;
8297;SDS011;4187;42.778;23.242;2024-02-14T03:34:03;12.70;;;11.47;;
8297;SDS011;4187;42.778;23.242;2024-02-14T03:36:30;11.33;;;10.23;;
8297;SDS011;4187;42.778;23.242;2024-02-14T03:38:57;9.60;;;8.70;;
8297;SDS011;4187;42.778;23.242;2024-02-14T03:41:29;10.23;;;8.90;;
8297;SDS011;4187;42.778;23.242;2024-02-14T03:43:55;11.07;;;8.97;;
8297;SDS011;4187;42.778;23.242;2024-02-14T03:46:25;9.63;;;8.70;;
8297;SDS011;4187;42.778;23.242;2024-02-14T03:48:54;10.00;;;9.03;;
8297;SDS011;4187;42.778;23.242;2024-02-14T03:51:22;10.43;;;9.33;;
8297;SDS011;4187;42.778;23.242;2024-02-14T03:53:50;10.90;;;8.90;;
8297;SDS011;4187;42.778;23.242;2024-02-14T03:56:17;10.27;;;9.27;;
8297;SDS011;4187;42.778;23.242;2024-02-14T03:58:44;11.93;;;9.77;;
8297;SDS011;4187;42.778;23.242;2024-02-14T04:01:12;11.63;;;9.53;;
8297;SDS011;4187;42.778;23.242;2024-02-14T04:03:39;12.17;;;9.77;;
8297;SDS011;4187;42.778;23.242;2024-02-14T04:06:07;10.47;;;9.30;;
8297;SDS011;4187;42.778;23.242;2024-02-14T04:08:34;12.37;;;10.17;;
8297;SDS011;4187;42.778;23.242;2024-02-14T04:11:00;12.00;;;10.50;;
8297;SDS011;4187;42.778;23.242;2024-02-14T04:13:27;13.80;;;11.73;;
8297;SDS011;4187;42.778;23.242;2024-02-14T04:15:54;12.97;;;11.10;;
8297;SDS011;4187;42.778;23.242;2024-02-14T04:18:21;13.13;;;11.73;;
8297;SDS011;4187;42.778;23.242;2024-02-14T04:20:48;13.80;;;12.30;;
8297;SDS011;4187;42.778;23.242;2024-02-14T04:23:16;12.87;;;11.53;;
8297;SDS011;4187;42.778;23.242;2024-02-14T04:25:42;15.63;;;11.57;;
8297;SDS011;4187;42.778;23.242;2024-02-14T04:28:10;15.33;;;13.70;;
8297;SDS011;4187;42.778;23.242;2024-02-14T04:30:37;17.20;;;14.10;;
8297;SDS011;4187;42.778;23.242;2024-02-14T04:33:04;16.30;;;13.47;;
8297;SDS011;4187;42.778;23.242;2024-02-14T04:35:31;15.87;;;12.93;;
8297;SDS011;4187;42.778;23.242;2024-02-14T04:37:59;14.27;;;12.50;;
8297;SDS011;4187;42.778;23.242;2024-02-14T04:40:27;15.70;;;12.97;;
8297;SDS011;4187;42.778;23.242;2024-02-14T04:42:54;13.37;;;12.03;;
8297;SDS011;4187;42.778;23.242;2024-02-14T04:45:20;14.77;;;12.93;;
8297;SDS011;4187;42.778;23.242;2024-02-14T04:47:47;13.30;;;11.90;;
8297;SDS011;4187;42.778;23.242;2024-02-14T04:50:14;16.60;;;13.73;;
8297;SDS011;4187;42.778;23.242;2024-02-14T04:52:41;15.87;;;13.47;;
8297;SDS011;4187;42.778;23.242;2024-02-14T04:55:08;14.60;;;12.37;;
8297;SDS011;4187;42.778;23.242;2024-02-14T04:57:37;14.73;;;12.50;;
8297;SDS011;4187;42.778;23.242;2024-02-14T05:00:04;12.67;;;11.30;;
8297;SDS011;4187;42.778;23.242;2024-02-14T05:02:34;13.37;;;11.00;;
8297;SDS011;4187;42.778;23.242;2024-02-14T05:05:01;14.00;;;12.50;;
8297;SDS011;4187;42.778;23.242;2024-02-14T05:07:28;15.97;;;12.43;;
8297;SDS011;4187;42.778;23.242;2024-02-14T05:09:55;16.27;;;12.50;;
8297;SDS011;4187;42.778;23.242;2024-02-14T05:12:21;13.50;;;11.87;;
8297;SDS011;4187;42.778;23.242;2024-02-14T05:14:50;14.20;;;12.70;;
8297;SDS011;4187;42.778;23.242;2024-02-14T05:17:16;14.33;;;12.83;;
8297;SDS011;4187;42.778;23.242;2024-02-14T05:19:43;16.00;;;13.23;;
8297;SDS011;4187;42.778;23.242;2024-02-14T05:22:10;13.77;;;12.30;;
8297;SDS011;4187;42.778;23.242;2024-02-14T05:24:37;15.50;;;13.10;;
8297;SDS011;4187;42.778;23.242;2024-02-14T05:27:04;19.23;;;15.10;;
8297;SDS011;4187;42.778;23.242;2024-02-14T05:29:31;15.33;;;12.80;;
8297;SDS011;4187;42.778;23.242;2024-02-14T05:31:59;15.60;;;12.33;;
8297;SDS011;4187;42.778;23.242;2024-02-14T05:34:26;12.73;;;11.33;;
8297;SDS011;4187;42.778;23.242;2024-02-14T05:36:53;13.67;;;12.07;;
8297;SDS011;4187;42.778;23.242;2024-02-14T05:39:22;13.33;;;11.93;;
8297;SDS011;4187;42.778;23.242;2024-02-14T05:41:50;14.00;;;12.50;;
8297;SDS011;4187;42.778;23.242;2024-02-14T05:44:19;12.37;;;10.70;;
8297;SDS011;4187;42.778;23.242;2024-02-14T05:46:47;15.23;;;13.07;;
8297;SDS011;4187;42.778;23.242;2024-02-14T05:49:15;11.97;;;10.67;;
8297;SDS011;4187;42.778;23.242;2024-02-14T05:51:42;14.10;;;12.03;;
8297;SDS011;4187;42.778;23.242;2024-02-14T05:54:09;14.47;;;12.37;;
8297;SDS011;4187;42.778;23.242;2024-02-14T05:56:36;18.67;;;13.57;;
8297;SDS011;4187;42.778;23.242;2024-02-14T05:59:03;15.70;;;14.10;;
8297;SDS011;4187;42.778;23.242;2024-02-14T06:01:29;14.30;;;12.77;;
8297;SDS011;4187;42.778;23.242;2024-02-14T06:03:56;13.57;;;11.63;;
8297;SDS011;4187;42.778;23.242;2024-02-14T06:06:24;11.93;;;10.70;;
8297;SDS011;4187;42.778;23.242;2024-02-14T06:08:51;13.47;;;11.97;;
8297;SDS011;4187;42.778;23.242;2024-02-14T06:11:18;12.37;;;11.07;;
8297;SDS011;4187;42.778;23.242;2024-02-14T06:13:46;12.10;;;10.80;;
8297;SDS011;4187;42.778;23.242;2024-02-14T06:16:13;12.80;;;11.47;;
8297;SDS011;4187;42.778;23.242;2024-02-14T06:18:40;11.57;;;10.37;;
8297;SDS011;4187;42.778;23.242;2024-02-14T06:21:07;12.17;;;10.97;;
8297;SDS011;4187;42.778;23.242;2024-02-14T06:23:35;11.30;;;10.10;;
8297;SDS011;4187;42.778;23.242;2024-02-14T06:26:04;10.83;;;9.73;;
8297;SDS011;4187;42.778;23.242;2024-02-14T06:28:31;11.57;;;10.37;;
8297;SDS011;4187;42.778;23.242;2024-02-14T06:30:57;12.17;;;10.80;;
8297;SDS011;4187;42.778;23.242;2024-02-14T06:33:25;12.20;;;10.90;;
8297;SDS011;4187;42.778;23.242;2024-02-14T06:35:52;12.70;;;11.37;;
8297;SDS011;4187;42.778;23.242;2024-02-14T06:38:19;10.80;;;9.70;;
8297;SDS011;4187;42.778;23.242;2024-02-14T06:40:47;12.97;;;9.97;;
8297;SDS011;4187;42.778;23.242;2024-02-14T06:43:14;14.80;;;9.63;;
8297;SDS011;4187;42.778;23.242;2024-02-14T06:45:41;11.10;;;9.57;;
8297;SDS011;4187;42.778;23.242;2024-02-14T06:48:08;9.90;;;8.90;;
8297;SDS011;4187;42.778;23.242;2024-02-14T06:50:35;11.90;;;9.50;;
8297;SDS011;4187;42.778;23.242;2024-02-14T06:53:02;10.90;;;9.53;;
8297;SDS011;4187;42.778;23.242;2024-02-14T06:55:29;12.50;;;8.50;;
8297;SDS011;4187;42.778;23.242;2024-02-14T06:57:58;10.20;;;9.10;;
8297;SDS011;4187;42.778;23.242;2024-02-14T07:00:26;10.40;;;9.40;;
8297;SDS011;4187;42.778;23.242;2024-02-14T07:02:53;11.33;;;9.20;;
8297;SDS011;4187;42.778;23.242;2024-02-14T07:05:20;9.17;;;8.27;;
8297;SDS011;4187;42.778;23.242;2024-02-14T07:07:46;8.43;;;7.63;;
8297;SDS011;4187;42.778;23.242;2024-02-14T07:10:13;9.67;;;8.47;;
8297;SDS011;4187;42.778;23.242;2024-02-14T07:12:40;8.97;;;8.07;;
8297;SDS011;4187;42.778;23.242;2024-02-14T07:15:08;8.43;;;7.63;;
8297;SDS011;4187;42.778;23.242;2024-02-14T07:17:35;10.80;;;8.87;;
8297;SDS011;4187;42.778;23.242;2024-02-14T07:20:03;8.77;;;7.90;;
8297;SDS011;4187;42.778;23.242;2024-02-14T07:22:33;10.07;;;8.07;;
8297;SDS011;4187;42.778;23.242;2024-02-14T07:25:01;10.60;;;8.13;;
8297;SDS011;4187;42.778;23.242;2024-02-14T07:27:30;8.23;;;7.27;;
8297;SDS011;4187;42.778;23.242;2024-02-14T07:29:57;12.03;;;8.23;;
8297;SDS011;4187;42.778;23.242;2024-02-14T07:32:25;8.70;;;7.90;;
8297;SDS011;4187;42.778;23.242;2024-02-14T07:34:52;10.53;;;8.57;;
8297;SDS011;4187;42.778;23.242;2024-02-14T07:37:19;10.67;;;8.27;;
8297;SDS011;4187;42.778;23.242;2024-02-14T07:39:46;9.23;;;7.57;;
8297;SDS011;4187;42.778;23.242;2024-02-14T07:42:13;11.03;;;9.03;;
8297;SDS011;4187;42.778;23.242;2024-02-14T07:44:41;11.10;;;9.23;;
8297;SDS011;4187;42.778;23.242;2024-02-14T07:47:07;12.80;;;9.50;;
8297;SDS011;4187;42.778;23.242;2024-02-14T07:49:36;10.23;;;8.87;;
8297;SDS011;4187;42.778;23.242;2024-02-14T07:52:03;13.03;;;9.67;;
8297;SDS011;4187;42.778;23.242;2024-02-14T07:54:30;17.17;;;10.97;;
8297;SDS011;4187;42.778;23.242;2024-02-14T07:56:56;15.10;;;11.90;;
8297;SDS011;4187;42.778;23.242;2024-02-14T07:59:23;13.57;;;10.77;;
8297;SDS011;4187;42.778;23.242;2024-02-14T08:01:50;16.77;;;11.20;;
8297;SDS011;4187;42.778;23.242;2024-02-14T08:04:17;12.90;;;8.63;;
8297;SDS011;4187;42.778;23.242;2024-02-14T08:06:45;9.30;;;8.30;;
8297;SDS011;4187;42.778;23.242;2024-02-14T08:09:14;10.50;;;9.40;;
8297;SDS011;4187;42.778;23.242;2024-02-14T08:11:41;11.90;;;9.23;;
8297;SDS011;4187;42.778;23.242;2024-02-14T08:14:07;10.13;;;9.03;;
8297;SDS011;4187;42.778;23.242;2024-02-14T08:16:34;11.80;;;9.13;;
8297;SDS011;4187;42.778;23.242;2024-02-14T08:19:01;12.47;;;9.43;;
8297;SDS011;4187;42.778;23.242;2024-02-14T08:21:28;11.77;;;10.43;;
8297;SDS011;4187;42.778;23.242;2024-02-14T08:23:57;11.20;;;9.00;;
8297;SDS011;4187;42.778;23.242;2024-02-14T08:26:25;12.40;;;9.63;;
8297;SDS011;4187;42.778;23.242;2024-02-14T08:28:51;11.13;;;8.70;;
8297;SDS011;4187;42.778;23.242;2024-02-14T08:31:19;11.17;;;9.33;;
8297;SDS011;4187;42.778;23.242;2024-02-14T08:33:46;9.67;;;8.70;;
8297;SDS011;4187;42.778;23.242;2024-02-14T08:36:13;8.90;;;7.93;;
8297;SDS011;4187;42.778;23.242;2024-02-14T08:38:41;9.37;;;8.20;;
8297;SDS011;4187;42.778;23.242;2024-02-14T08:41:10;8.37;;;7.47;;
8297;SDS011;4187;42.778;23.242;2024-02-14T08:43:37;9.50;;;8.50;;
8297;SDS011;4187;42.778;23.242;2024-02-14T08:46:08;8.60;;;7.67;;
8297;SDS011;4187;42.778;23.242;2024-02-14T08:48:36;11.37;;;8.30;;
8297;SDS011;4187;42.778;23.242;2024-02-14T08:51:06;9.17;;;7.57;;
8297;SDS011;4187;42.778;23.242;2024-02-14T08:53:34;9.13;;;8.23;;
8297;SDS011;4187;42.778;23.242;2024-02-14T08:56:01;9.50;;;8.50;;
8297;SDS011;4187;42.778;23.242;2024-02-14T08:58:29;9.73;;;8.50;;
8297;SDS011;4187;42.778;23.242;2024-02-14T09:00:56;8.57;;;7.27;;
8297;SDS011;4187;42.778;23.242;2024-02-14T09:03:23;8.30;;;7.43;;
8297;SDS011;4187;42.778;23.242;2024-02-14T09:05:49;9.13;;;8.23;;
8297;SDS011;4187;42.778;23.242;2024-02-14T09:08:18;10.30;;;9.30;;
8297;SDS011;4187;42.778;23.242;2024-02-14T09:10:45;10.83;;;8.37;;
8297;SDS011;4187;42.778;23.242;2024-02-14T09:13:13;10.33;;;9.17;;
8297;SDS011;4187;42.778;23.242;2024-02-14T09:15:42;8.40;;;7.70;;
8297;SDS011;4187;42.778;23.242;2024-02-14T09:18:09;7.83;;;7.03;;
8297;SDS011;4187;42.778;23.242;2024-02-14T09:20:36;7.83;;;7.03;;
8297;SDS011;4187;42.778;23.242;2024-02-14T09:23:03;8.87;;;7.33;;
8297;SDS011;4187;42.778;23.242;2024-02-14T09:25:30;7.97;;;7.17;;
8297;SDS011;4187;42.778;23.242;2024-02-14T09:27:57;8.83;;;6.80;;
8297;SDS011;4187;42.778;23.242;2024-02-14T09:30:24;8.27;;;6.97;;
8297;SDS011;4187;42.778;23.242;2024-02-14T09:32:52;8.77;;;6.60;;
8297;SDS011;4187;42.778;23.242;2024-02-14T09:35:19;8.37;;;7.27;;
8297;SDS011;4187;42.778;23.242;2024-02-14T09:37:45;9.50;;;7.70;;
8297;SDS011;4187;42.778;23.242;2024-02-14T09:40:12;8.97;;;7.80;;
8297;SDS011;4187;42.778;23.242;2024-02-14T09:42:41;27.50;;;15.07;;
8297;SDS011;4187;42.778;23.242;2024-02-14T09:45:11;40.20;;;25.10;;
8297;SDS011;4187;42.778;23.242;2024-02-14T09:47:38;13.13;;;8.30;;
8297;SDS011;4187;42.778;23.242;2024-02-14T09:50:07;15.13;;;9.83;;
8297;SDS011;4187;42.778;23.242;2024-02-14T09:52:36;18.50;;;10.43;;
8297;SDS011;4187;42.778;23.242;2024-02-14T09:55:05;13.50;;;8.93;;
8297;SDS011;4187;42.778;23.242;2024-02-14T09:57:35;11.70;;;7.23;;
8297;SDS011;4187;42.778;23.242;2024-02-14T10:00:07;8.77;;;7.20;;
8297;SDS011;4187;42.778;23.242;2024-02-14T10:02:35;9.43;;;7.90;;
8297;SDS011;4187;42.778;23.242;2024-02-14T10:05:04;12.10;;;7.70;;
8297;SDS011;4187;42.778;23.242;2024-02-14T10:07:40;13.00;;;9.47;;
8297;SDS011;4187;42.778;23.242;2024-02-14T10:10:07;12.03;;;8.43;;
8297;SDS011;4187;42.778;23.242;2024-02-14T10:12:35;14.93;;;9.10;;
8297;SDS011;4187;42.778;23.242;2024-02-14T10:15:01;10.83;;;8.93;;
8297;SDS011;4187;42.778;23.242;2024-02-14T10:17:29;13.03;;;8.57;;
8297;SDS011;4187;42.778;23.242;2024-02-14T10:19:59;8.53;;;7.63;;
8297;SDS011;4187;42.778;23.242;2024-02-14T10:22:33;7.87;;;7.17;;
8297;SDS011;4187;42.778;23.242;2024-02-14T10:25:02;12.33;;;7.90;;
8297;SDS011;4187;42.778;23.242;2024-02-14T10:27:29;8.87;;;7.97;;
8297;SDS011;4187;42.778;23.242;2024-02-14T10:29:57;10.27;;;7.57;;
8297;SDS011;4187;42.778;23.242;2024-02-14T10:32:24;7.80;;;7.00;;
8297;SDS011;4187;42.778;23.242;2024-02-14T10:34:50;9.07;;;7.80;;
8297;SDS011;4187;42.778;23.242;2024-02-14T10:37:17;10.40;;;9.23;;
8297;SDS011;4187;42.778;23.242;2024-02-14T10:39:47;10.07;;;8.47;;
8297;SDS011;4187;42.778;23.242;2024-02-14T10:42:18;9.83;;;7.60;;
8297;SDS011;4187;42.778;23.242;2024-02-14T10:44:45;12.53;;;8.73;;
8297;SDS011;4187;42.778;23.242;2024-02-14T10:47:14;16.50;;;12.37;;
8297;SDS011;4187;42.778;23.242;2024-02-14T10:49:47;11.00;;;8.13;;
8297;SDS011;4187;42.778;23.242;2024-02-14T10:52:16;16.07;;;12.33;;
8297;SDS011;4187;42.778;23.242;2024-02-14T10:54:46;16.77;;;11.87;;
8297;SDS011;4187;42.778;23.242;2024-02-14T10:57:23;14.60;;;9.83;;
8297;SDS011;4187;42.778;23.242;2024-02-14T10:59:51;13.40;;;10.00;;
8297;SDS011;4187;42.778;23.242;2024-02-14T11:02:19;12.53;;;10.33;;
8297;SDS011;4187;42.778;23.242;2024-02-14T11:04:50;12.20;;;8.20;;
8297;SDS011;4187;42.778;23.242;2024-02-14T11:07:18;8.33;;;7.37;;
8297;SDS011;4187;42.778;23.242;2024-02-14T11:09:48;9.17;;;8.17;;
8297;SDS011;4187;42.778;23.242;2024-02-14T11:12:15;9.10;;;8.10;;
8297;SDS011;4187;42.778;23.242;2024-02-14T11:14:43;10.53;;;8.57;;
8297;SDS011;4187;42.778;23.242;2024-02-14T11:17:10;9.23;;;7.97;;
8297;SDS011;4187;42.778;23.242;2024-02-14T11:19:39;8.03;;;7.23;;
8297;SDS011;4187;42.778;23.242;2024-02-14T11:22:12;10.10;;;8.13;;
8297;SDS011;4187;42.778;23.242;2024-02-14T11:24:39;12.13;;;10.90;;
8297;SDS011;4187;42.778;23.242;2024-02-14T11:27:09;11.53;;;10.07;;
8297;SDS011;4187;42.778;23.242;2024-02-14T11:29:38;10.83;;;9.27;;
8297;SDS011;4187;42.778;23.242;2024-02-14T11:32:07;8.80;;;7.60;;
8297;SDS011;4187;42.778;23.242;2024-02-14T11:37:04;8.73;;;7.87;;
8297;SDS011;4187;42.778;23.242;2024-02-14T11:39:32;11.07;;;8.43;;
8297;SDS011;4187;42.778;23.242;2024-02-14T11:42:00;9.13;;;8.20;;
8297;SDS011;4187;42.778;23.242;2024-02-14T11:44:26;10.63;;;8.37;;
8297;SDS011;4187;42.778;23.242;2024-02-14T11:46:53;9.27;;;8.03;;
8297;SDS011;4187;42.778;23.242;2024-02-14T11:49:22;9.97;;;8.30;;
8297;SDS011;4187;42.778;23.242;2024-02-14T11:51:49;9.33;;;6.53;;
8297;SDS011;4187;42.778;23.242;2024-02-14T11:54:15;8.93;;;6.93;;
8297;SDS011;4187;42.778;23.242;2024-02-14T11:56:46;10.13;;;8.23;;
8297;SDS011;4187;42.778;23.242;2024-02-14T11:59:12;11.67;;;8.23;;
8297;SDS011;4187;42.778;23.242;2024-02-14T12:01:40;8.50;;;7.63;;
8297;SDS011;4187;42.778;23.242;2024-02-14T12:04:08;9.93;;;8.17;;
8297;SDS011;4187;42.778;23.242;2024-02-14T12:06:39;10.40;;;7.30;;
8297;SDS011;4187;42.778;23.242;2024-02-14T12:09:07;8.40;;;7.47;;
8297;SDS011;4187;42.778;23.242;2024-02-14T12:11:35;7.40;;;6.70;;
8297;SDS011;4187;42.778;23.242;2024-02-14T12:14:03;7.30;;;6.60;;
8297;SDS011;4187;42.778;23.242;2024-02-14T12:16:33;7.23;;;6.37;;
8297;SDS011;4187;42.778;23.242;2024-02-14T12:19:04;7.20;;;6.50;;
8297;SDS011;4187;42.778;23.242;2024-02-14T12:21:34;6.63;;;5.87;;
8297;SDS011;4187;42.778;23.242;2024-02-14T12:24:04;7.33;;;6.60;;
8297;SDS011;4187;42.778;23.242;2024-02-14T12:26:33;8.43;;;7.23;;
8297;SDS011;4187;42.778;23.242;2024-02-14T12:29:01;8.10;;;7.13;;
8297;SDS011;4187;42.778;23.242;2024-02-14T12:31:29;8.30;;;7.27;;
8297;SDS011;4187;42.778;23.242;2024-02-14T12:33:57;7.47;;;6.70;;
8297;SDS011;4187;42.778;23.242;2024-02-14T12:36:25;6.50;;;5.77;;
8297;SDS011;4187;42.778;23.242;2024-02-14T12:38:53;7.17;;;6.10;;
8297;SDS011;4187;42.778;23.242;2024-02-14T12:41:21;8.50;;;6.50;;
8297;SDS011;4187;42.778;23.242;2024-02-14T12:43:48;6.87;;;5.53;;
8297;SDS011;4187;42.778;23.242;2024-02-14T12:46:15;7.70;;;6.23;;
8297;SDS011;4187;42.778;23.242;2024-02-14T12:48:42;6.50;;;5.90;;
8297;SDS011;4187;42.778;23.242;2024-02-14T12:51:09;8.83;;;5.93;;
8297;SDS011;4187;42.778;23.242;2024-02-14T12:53:36;7.10;;;6.40;;
8297;SDS011;4187;42.778;23.242;2024-02-14T12:56:03;7.10;;;6.23;;
8297;SDS011;4187;42.778;23.242;2024-02-14T12:58:32;9.60;;;7.00;;
8297;SDS011;4187;42.778;23.242;2024-02-14T13:01:02;7.20;;;6.50;;
8297;SDS011;4187;42.778;23.242;2024-02-14T13:03:31;7.20;;;6.50;;
8297;SDS011;4187;42.778;23.242;2024-02-14T13:05:58;7.00;;;6.27;;
8297;SDS011;4187;42.778;23.242;2024-02-14T13:08:26;10.10;;;8.40;;
8297;SDS011;4187;42.778;23.242;2024-02-14T13:13:37;10.80;;;8.87;;
8297;SDS011;4187;42.778;23.242;2024-02-14T13:16:03;8.37;;;7.20;;
8297;SDS011;4187;42.778;23.242;2024-02-14T13:18:31;9.03;;;7.20;;
8297;SDS011;4187;42.778;23.242;2024-02-14T13:20:58;9.30;;;7.43;;
8297;SDS011;4187;42.778;23.242;2024-02-14T13:23:26;12.80;;;9.57;;
8297;SDS011;4187;42.778;23.242;2024-02-14T13:25:52;21.33;;;9.57;;
8297;SDS011;4187;42.778;23.242;2024-02-14T13:28:19;18.13;;;10.37;;
8297;SDS011;4187;42.778;23.242;2024-02-14T13:30:47;30.77;;;13.07;;
8297;SDS011;4187;42.778;23.242;2024-02-14T13:33:14;24.53;;;13.33;;
8297;SDS011;4187;42.778;23.242;2024-02-14T13:35:41;13.97;;;8.63;;
8297;SDS011;4187;42.778;23.242;2024-02-14T13:38:08;29.87;;;13.90;;
8297;SDS011;4187;42.778;23.242;2024-02-14T13:40:35;26.55;;;11.70;;
8297;SDS011;4187;42.778;23.242;2024-02-14T13:43:02;15.75;;;9.52;;
8297;SDS011;4187;42.778;23.242;2024-02-14T13:45:39;17.17;;;10.77;;
8297;SDS011;4187;42.778;23.242;2024-02-14T13:48:10;20.52;;;15.00;;
8297;SDS011;4187;42.778;23.242;2024-02-14T13:50:37;10.05;;;8.32;;
8297;SDS011;4187;42.778;23.242;2024-02-14T13:53:04;14.68;;;10.50;;
8297;SDS011;4187;42.778;23.242;2024-02-14T13:55:32;10.68;;;8.20;;
8297;SDS011;4187;42.778;23.242;2024-02-14T13:57:59;12.18;;;7.40;;
8297;SDS011;4187;42.778;23.242;2024-02-14T14:00:26;8.83;;;6.77;;
8297;SDS011;4187;42.778;23.242;2024-02-14T14:02:53;13.32;;;7.95;;
8297;SDS011;4187;42.778;23.242;2024-02-14T14:05:21;10.40;;;7.85;;
8297;SDS011;4187;42.778;23.242;2024-02-14T14:07:48;10.07;;;6.57;;
8297;SDS011;4187;42.778;23.242;2024-02-14T14:10:15;10.13;;;7.00;;
8297;SDS011;4187;42.778;23.242;2024-02-14T14:12:42;11.40;;;7.50;;
8297;SDS011;4187;42.778;23.242;2024-02-14T14:15:09;10.07;;;8.13;;
8297;SDS011;4187;42.778;23.242;2024-02-14T14:17:36;13.63;;;8.40;;
8297;SDS011;4187;42.778;23.242;2024-02-14T14:20:03;8.90;;;6.43;;
8297;SDS011;4187;42.778;23.242;2024-02-14T14:22:34;11.95;;;8.27;;
8297;SDS011;4187;42.778;23.242;2024-02-14T14:25:03;10.17;;;7.37;;
8297;SDS011;4187;42.778;23.242;2024-02-14T14:27:31;11.13;;;7.72;;
8297;SDS011;4187;42.778;23.242;2024-02-14T14:29:57;12.00;;;8.60;;
8297;SDS011;4187;42.778;23.242;2024-02-14T14:32:24;12.32;;;9.25;;
8297;SDS011;4187;42.778;23.242;2024-02-14T14:34:51;13.75;;;10.07;;
8297;SDS011;4187;42.778;23.242;2024-02-14T14:37:18;17.92;;;11.80;;
8297;SDS011;4187;42.778;23.242;2024-02-14T14:39:47;12.27;;;8.68;;
8297;SDS011;4187;42.778;23.242;2024-02-14T14:42:13;7.78;;;6.00;;
8297;SDS011;4187;42.778;23.242;2024-02-14T14:44:41;9.18;;;5.40;;
8297;SDS011;4187;42.778;23.242;2024-02-14T14:47:08;7.93;;;5.68;;
8297;SDS011;4187;42.778;23.242;2024-02-14T14:49:36;7.63;;;6.20;;
8297;SDS011;4187;42.778;23.242;2024-02-14T14:52:04;9.05;;;7.55;;
8297;SDS011;4187;42.778;23.242;2024-02-14T14:54:31;10.48;;;6.75;;
8297;SDS011;4187;42.778;23.242;2024-02-14T14:56:59;12.00;;;8.82;;